Time;durP1;ratioP1;P1;durP2;ratioP2;P2;SDS_P1;SDS_P2;PMS_P1;PMS_P2;Temp;Humidity;BMP_temperature;BMP_pressure;BME280_temperature;BME280_humidity;BME280_pressure;Samples;Min_cycle;Max_cycle;Signal;HPM_P1;HPM_P2
2022/01/29 00:01:21;;;;;;;26.25;9.43;;;7.50;99.90;;;;;;5019781;28;20500;-59
2022/01/29 00:03:47;;;;;;;23.30;8.45;;;7.50;99.90;;;;;;4989477;28;20711;-61
2022/01/29 00:06:14;;;;;;;27.27;7.90;;;7.50;99.90;;;;;;4987479;28;20037;-60
2022/01/29 00:08:39;;;;;;;25.52;8.32;;;7.50;99.90;;;;;;4992494;28;20437;-60
2022/01/29 00:11:12;;;;;;;27.85;8.35;;;7.50;99.90;;;;;;4992143;28;20050;-61
2022/01/29 00:13:38;;;;;;;20.50;7.70;;;7.50;99.90;;;;;;4976716;28;20041;-60
2022/01/29 00:16:04;;;;;;;26.88;7.72;;;7.50;99.90;;;;;;4998449;28;20037;-60
2022/01/29 00:18:30;;;;;;;18.40;7.40;;;7.50;99.90;;;;;;4983323;28;20430;-60
2022/01/29 00:20:55;;;;;;;24.00;7.80;;;7.50;99.90;;;;;;4994827;28;20042;-60
2022/01/29 00:23:21;;;;;;;16.85;7.50;;;7.50;99.90;;;;;;4978520;28;20034;-61
2022/01/29 00:25:47;;;;;;;24.88;7.72;;;7.50;99.90;;;;;;4995651;28;20042;-61
2022/01/29 00:28:14;;;;;;;26.33;8.52;;;7.60;99.90;;;;;;4982920;28;20049;-59
2022/01/29 00:30:43;;;;;;;23.75;7.07;;;7.50;99.90;;;;;;4996444;28;20050;-60
2022/01/29 00:33:15;;;;;;;30.92;9.98;;;7.50;99.90;;;;;;4981807;28;20051;-61
2022/01/29 00:35:45;;;;;;;26.25;8.20;;;7.60;99.90;;;;;;5001073;28;20034;-60
2022/01/29 00:38:12;;;;;;;21.17;7.88;;;7.60;99.90;;;;;;4998331;28;20038;-61
2022/01/29 00:40:37;;;;;;;20.10;7.25;;;7.60;99.90;;;;;;5008927;28;20034;-60
2022/01/29 00:43:04;;;;;;;24.70;8.55;;;7.60;99.90;;;;;;5011273;28;20048;-61
2022/01/29 00:45:32;;;;;;;25.60;8.70;;;7.60;99.90;;;;;;4991278;28;20407;-59
2022/01/29 00:47:57;;;;;;;25.67;8.40;;;7.60;99.90;;;;;;5003303;28;20128;-59
2022/01/29 00:50:23;;;;;;;23.25;8.05;;;7.70;99.90;;;;;;4998353;28;20141;-61
2022/01/29 00:52:49;;;;;;;21.35;8.05;;;7.60;99.90;;;;;;4995097;28;20034;-61
2022/01/29 00:55:15;;;;;;;24.25;8.13;;;7.70;99.90;;;;;;4984651;28;20102;-59
2022/01/29 00:57:41;;;;;;;24.42;8.32;;;7.70;99.90;;;;;;5002188;28;20369;-61
2022/01/29 01:00:10;;;;;;;25.05;8.40;;;7.70;99.90;;;;;;4995417;28;20453;-59
2022/01/29 01:02:36;;;;;;;24.73;7.75;;;7.70;99.90;;;;;;4980393;28;20301;-60
2022/01/29 01:05:03;;;;;;;25.40;8.52;;;7.70;99.90;;;;;;4980400;28;20239;-61
2022/01/29 01:07:29;;;;;;;23.10;7.88;;;7.70;99.90;;;;;;4988198;28;20061;-60
2022/01/29 01:09:54;;;;;;;26.45;9.30;;;7.70;99.90;;;;;;5007812;28;20491;-60
2022/01/29 01:12:20;;;;;;;23.00;7.88;;;7.70;99.90;;;;;;4981821;28;20088;-60
2022/01/29 01:14:46;;;;;;;23.73;8.27;;;7.80;99.90;;;;;;4998081;28;20102;-60
2022/01/29 01:17:12;;;;;;;25.52;8.32;;;7.70;99.90;;;;;;5005384;28;20452;-60
2022/01/29 01:19:37;;;;;;;26.25;8.07;;;7.80;99.90;;;;;;4967062;28;20038;-59
2022/01/29 01:22:04;;;;;;;18.58;8.20;;;7.80;99.90;;;;;;4984341;28;20041;-61
2022/01/29 01:24:29;;;;;;;18.63;7.45;;;7.80;99.90;;;;;;4990116;28;20046;-60
2022/01/29 01:26:55;;;;;;;23.73;8.80;;;7.80;99.90;;;;;;5001923;28;20034;-60
2022/01/29 01:29:21;;;;;;;23.73;9.65;;;7.80;99.90;;;;;;5009620;28;20033;-60
2022/01/29 01:31:47;;;;;;;23.65;9.18;;;7.80;99.90;;;;;;4968371;28;20078;-60
2022/01/29 01:34:14;;;;;;;29.77;8.68;;;7.80;99.90;;;;;;4977974;28;20122;-59
2022/01/29 01:36:54;;;;;;;22.85;8.00;;;7.90;99.90;;;;;;4974551;28;20038;-60
2022/01/29 01:39:29;;;;;;;19.80;8.48;;;7.90;99.90;;;;;;4998791;28;20508;-60
2022/01/29 01:42:16;;;;;;;26.02;7.97;;;7.90;99.90;;;;;;5000129;28;20122;-58
2022/01/29 01:44:45;;;;;;;21.42;9.32;;;7.90;99.90;;;;;;4976474;28;20046;-60
2022/01/29 01:47:12;;;;;;;25.05;8.88;;;7.80;99.90;;;;;;4998820;28;20109;-59
2022/01/29 01:49:39;;;;;;;27.90;8.55;;;8.00;99.90;;;;;;4984900;28;20081;-59
2022/01/29 01:52:08;;;;;;;28.15;9.35;;;8.00;99.90;;;;;;4999214;28;20131;-59
2022/01/29 01:54:34;;;;;;;24.25;9.02;;;8.00;99.90;;;;;;4975953;28;20442;-59
2022/01/29 01:57:00;;;;;;;21.02;9.00;;;8.00;99.90;;;;;;4982883;28;20041;-60
2022/01/29 01:59:27;;;;;;;21.77;8.75;;;8.00;99.90;;;;;;4995875;28;20499;-61
2022/01/29 02:01:53;;;;;;;28.70;9.15;;;8.00;99.90;;;;;;4977952;28;20036;-59
2022/01/29 02:04:19;;;;;;;26.70;9.27;;;8.00;99.90;;;;;;4980672;28;20042;-58
2022/01/29 02:06:46;;;;;;;25.95;8.85;;;8.10;99.90;;;;;;4962848;28;20045;-59
2022/01/29 02:09:14;;;;;;;27.80;9.80;;;8.00;99.90;;;;;;4998432;28;20038;-58
2022/01/29 02:11:49;;;;;;;29.17;12.13;;;8.10;99.90;;;;;;4969488;28;20042;-60
2022/01/29 02:14:15;;;;;;;29.73;11.93;;;8.10;99.90;;;;;;4994028;23;20461;-60
2022/01/29 02:16:41;;;;;;;27.67;10.70;;;8.10;99.90;;;;;;4975382;28;20059;-58
2022/01/29 02:19:06;;;;;;;28.00;11.52;;;8.10;99.90;;;;;;4972254;28;20144;-60
2022/01/29 02:21:36;;;;;;;26.98;10.25;;;8.20;99.90;;;;;;4963164;28;20046;-59
2022/01/29 02:24:02;;;;;;;26.05;11.15;;;8.10;99.90;;;;;;4974029;28;20128;-60
2022/01/29 02:26:28;;;;;;;28.30;12.05;;;8.10;99.90;;;;;;4972770;28;20123;-57
2022/01/29 02:28:55;;;;;;;27.98;12.02;;;8.10;99.90;;;;;;4977194;28;20068;-60
2022/01/29 02:31:20;;;;;;;31.05;12.25;;;8.10;99.90;;;;;;4973204;28;20061;-59
2022/01/29 02:33:46;;;;;;;29.85;12.10;;;8.10;99.90;;;;;;4978689;28;20039;-56
2022/01/29 02:36:12;;;;;;;30.08;11.57;;;8.20;99.90;;;;;;4971347;28;20588;-56
2022/01/29 02:38:38;;;;;;;29.17;12.45;;;8.10;99.90;;;;;;4977961;28;20047;-55
2022/01/29 02:41:06;;;;;;;31.50;12.05;;;8.10;99.90;;;;;;4971789;28;20043;-59
2022/01/29 02:43:42;;;;;;;28.67;13.52;;;8.20;99.90;;;;;;4969411;28;20050;-59
2022/01/29 02:48:50;;;;;;;28.98;12.10;;;8.10;99.90;;;;;;4972732;28;20057;-56
2022/01/29 02:51:17;;;;;;;32.88;13.05;;;8.20;99.90;;;;;;4984183;28;20053;-58
2022/01/29 02:53:44;;;;;;;36.78;14.35;;;8.20;99.90;;;;;;4979822;28;20490;-57
2022/01/29 02:56:09;;;;;;;30.80;11.80;;;8.20;99.90;;;;;;4974094;28;20051;-58
2022/01/29 02:58:36;;;;;;;25.63;11.52;;;8.20;99.90;;;;;;4982303;28;20516;-58
2022/01/29 03:01:06;;;;;;;35.00;12.57;;;8.20;99.90;;;;;;4974803;28;20049;-57
2022/01/29 03:03:32;;;;;;;26.65;11.35;;;8.20;99.90;;;;;;4977352;28;20054;-60
2022/01/29 03:05:58;;;;;;;31.75;12.43;;;8.20;99.90;;;;;;4977657;28;20035;-57
2022/01/29 03:08:23;;;;;;;33.65;12.05;;;8.20;99.90;;;;;;4987292;28;20074;-59
2022/01/29 03:10:49;;;;;;;29.35;12.32;;;8.20;99.90;;;;;;4980587;28;20046;-60
2022/01/29 03:13:16;;;;;;;34.15;12.57;;;8.20;99.90;;;;;;4977327;28;20045;-56
2022/01/29 03:15:42;;;;;;;30.20;11.98;;;8.20;99.90;;;;;;4979926;28;20095;-59
2022/01/29 03:18:08;;;;;;;31.33;11.60;;;8.20;99.90;;;;;;4979920;28;20478;-60
2022/01/29 03:20:34;;;;;;;30.10;11.85;;;8.20;99.90;;;;;;5000833;28;20070;-59
2022/01/29 03:23:00;;;;;;;29.23;12.48;;;8.20;99.90;;;;;;4968105;28;20130;-58
2022/01/29 03:25:26;;;;;;;33.63;12.85;;;8.20;99.90;;;;;;4967418;28;20133;-57
2022/01/29 03:27:52;;;;;;;29.73;11.93;;;8.20;99.90;;;;;;4968039;28;20038;-58
2022/01/29 03:30:18;;;;;;;30.30;12.48;;;8.20;99.90;;;;;;4989217;28;20036;-59
2022/01/29 03:32:44;;;;;;;36.15;13.65;;;8.30;99.90;;;;;;4986285;28;20042;-60
2022/01/29 03:35:11;;;;;;;32.53;14.13;;;8.20;99.90;;;;;;5048275;28;20101;-59
2022/01/29 03:37:37;;;;;;;34.22;13.98;;;8.20;99.90;;;;;;4982367;28;20392;-58
2022/01/29 03:40:06;;;;;;;31.48;15.15;;;8.20;99.90;;;;;;4971886;28;20489;-60
2022/01/29 03:42:37;;;;;;;26.00;13.23;;;8.30;99.90;;;;;;4979112;28;20416;-57
2022/01/29 03:45:06;;;;;;;33.67;13.95;;;8.30;99.90;;;;;;4983003;28;20053;-60
2022/01/29 03:47:32;;;;;;;30.88;13.85;;;8.30;99.90;;;;;;4988425;28;20311;-60
2022/01/29 03:49:58;;;;;;;36.15;15.63;;;8.20;99.90;;;;;;4969153;28;20454;-59
2022/01/29 03:52:23;;;;;;;28.10;14.18;;;8.30;99.90;;;;;;4985701;28;20034;-59
2022/01/29 03:54:49;;;;;;;32.78;14.32;;;8.30;99.90;;;;;;4983845;28;20500;-59
2022/01/29 03:57:15;;;;;;;27.92;13.77;;;8.30;99.90;;;;;;4977928;28;20038;-58
2022/01/29 03:59:41;;;;;;;31.73;15.70;;;8.30;99.90;;;;;;4980242;28;20038;-59
2022/01/29 04:02:06;;;;;;;30.77;13.20;;;8.30;99.90;;;;;;4985032;28;20154;-58
2022/01/29 04:04:32;;;;;;;32.13;15.50;;;8.40;99.90;;;;;;4978427;28;20187;-60
2022/01/29 04:07:05;;;;;;;27.85;14.35;;;8.30;99.90;;;;;;4994305;28;20049;-60
2022/01/29 04:09:30;;;;;;;33.53;14.48;;;8.30;99.90;;;;;;4978419;28;20050;-59
2022/01/29 04:11:56;;;;;;;33.72;15.48;;;8.30;99.90;;;;;;4965954;28;20043;-60
2022/01/29 04:14:22;;;;;;;32.47;13.27;;;8.40;99.90;;;;;;4975815;28;20081;-60
2022/01/29 04:16:48;;;;;;;31.67;13.55;;;8.40;99.90;;;;;;4971410;28;20044;-59
2022/01/29 04:19:14;;;;;;;26.92;12.95;;;8.40;99.90;;;;;;4985276;28;20463;-60
2022/01/29 04:21:41;;;;;;;34.92;14.90;;;8.40;99.90;;;;;;4960774;28;20374;-59
2022/01/29 04:24:07;;;;;;;25.77;13.27;;;8.40;99.90;;;;;;4972481;28;20147;-60
2022/01/29 04:26:35;;;;;;;31.23;14.63;;;8.40;99.90;;;;;;4981572;28;20034;-60
2022/01/29 04:29:08;;;;;;;36.47;15.85;;;8.40;99.90;;;;;;4985414;28;20474;-60
2022/01/29 04:31:59;;;;;;;28.60;13.20;;;8.40;99.90;;;;;;4978802;28;20501;-58
2022/01/29 04:34:25;;;;;;;27.55;14.07;;;8.40;99.90;;;;;;4975276;28;20050;-58
2022/01/29 04:36:51;;;;;;;32.88;14.18;;;8.40;99.90;;;;;;4986578;28;20088;-60
2022/01/29 04:39:17;;;;;;;29.75;14.02;;;8.50;99.90;;;;;;4972450;28;20061;-58
2022/01/29 04:41:42;;;;;;;35.55;14.70;;;8.50;99.90;;;;;;4979375;28;20566;-59
2022/01/29 04:44:08;;;;;;;32.00;14.18;;;8.50;99.90;;;;;;4959914;28;20061;-59
2022/01/29 04:46:34;;;;;;;25.55;13.52;;;8.40;99.90;;;;;;4981264;28;20065;-59
2022/01/29 04:48:59;;;;;;;32.67;14.00;;;8.50;99.90;;;;;;4978209;28;20129;-59
2022/01/29 04:51:25;;;;;;;32.90;13.05;;;8.50;99.90;;;;;;4973704;28;20046;-57
2022/01/29 04:53:51;;;;;;;29.27;14.68;;;8.50;99.90;;;;;;4980788;28;20133;-60
2022/01/29 04:56:17;;;;;;;29.85;13.80;;;8.50;99.90;;;;;;4979013;28;20376;-60
2022/01/29 04:58:43;;;;;;;34.00;14.77;;;8.50;99.90;;;;;;4969424;28;20062;-60
2022/01/29 05:01:09;;;;;;;29.05;14.88;;;8.50;99.90;;;;;;4977164;28;20058;-60
2022/01/29 05:03:34;;;;;;;27.40;13.45;;;8.50;99.90;;;;;;4971095;28;20054;-59
2022/01/29 05:06:01;;;;;;;31.83;14.60;;;8.50;99.90;;;;;;4975510;28;20119;-59
2022/01/29 05:08:26;;;;;;;27.85;14.38;;;8.50;99.90;;;;;;4968431;28;20069;-58
2022/01/29 05:10:53;;;;;;;31.15;14.82;;;8.50;99.90;;;;;;4966669;28;20481;-60
2022/01/29 05:13:24;;;;;;;30.95;16.20;;;8.60;99.90;;;;;;4977488;28;20039;-60
2022/01/29 05:27:01;;;;;;;23.85;13.50;;;8.70;99.90;;;;;;4975143;28;20050;-60
2022/01/29 05:29:30;;;;;;;24.42;14.70;;;8.70;99.90;;;;;;4952226;28;20092;-59
2022/01/29 05:32:00;;;;;;;27.63;15.18;;;8.70;99.90;;;;;;4974631;28;20046;-60
2022/01/29 05:34:26;;;;;;;30.35;14.27;;;8.70;99.90;;;;;;4978113;28;20082;-59
2022/01/29 05:36:53;;;;;;;25.52;13.82;;;8.70;99.90;;;;;;4975526;28;20115;-58
2022/01/29 05:39:20;;;;;;;31.33;14.20;;;8.70;99.90;;;;;;4962155;28;20125;-59
2022/01/29 05:41:45;;;;;;;29.88;14.73;;;8.80;99.90;;;;;;4961459;28;20042;-58
2022/01/29 05:44:11;;;;;;;22.50;13.55;;;8.80;99.90;;;;;;4966739;28;20369;-59
2022/01/29 05:46:39;;;;;;;24.42;13.02;;;8.80;99.90;;;;;;4981702;28;20034;-59
2022/01/29 05:49:05;;;;;;;29.83;14.38;;;8.80;99.90;;;;;;4975958;28;20447;-58
2022/01/29 05:51:31;;;;;;;27.45;13.80;;;8.80;99.90;;;;;;4969983;28;20051;-60
2022/01/29 05:54:01;;;;;;;36.67;13.57;;;8.80;99.90;;;;;;4979540;28;20046;-56
2022/01/29 05:56:28;;;;;;;28.02;14.10;;;8.80;99.90;;;;;;4962264;28;20038;-58
2022/01/29 05:58:54;;;;;;;25.08;13.02;;;8.80;99.90;;;;;;4977542;28;20062;-59
2022/01/29 06:01:20;;;;;;;23.80;13.48;;;8.80;99.90;;;;;;4966410;28;20520;-58
2022/01/29 06:03:46;;;;;;;23.73;13.73;;;8.80;99.90;;;;;;4974718;28;20054;-60
2022/01/29 06:06:12;;;;;;;30.10;13.85;;;8.80;99.90;;;;;;4980149;28;20096;-58
2022/01/29 06:08:37;;;;;;;24.10;13.88;;;8.80;99.90;;;;;;4965561;28;20077;-58
2022/01/29 06:11:03;;;;;;;27.10;13.98;;;8.80;99.90;;;;;;4975932;28;20117;-60
2022/01/29 06:13:29;;;;;;;24.70;12.93;;;8.90;99.90;;;;;;4970417;28;20045;-57
2022/01/29 06:15:55;;;;;;;22.52;12.70;;;8.90;99.90;;;;;;4982315;28;20481;-59
2022/01/29 06:18:23;;;;;;;30.20;14.30;;;8.90;99.90;;;;;;4943572;28;20051;-58
2022/01/29 06:20:56;;;;;;;31.30;15.40;;;8.90;99.90;;;;;;4981457;28;20099;-58
2022/01/29 06:23:29;;;;;;;26.08;13.43;;;8.90;99.90;;;;;;4974597;28;20127;-58
2022/01/29 06:25:56;;;;;;;22.30;12.63;;;8.90;99.90;;;;;;4974285;28;20081;-58
2022/01/29 06:28:22;;;;;;;23.23;13.32;;;8.90;99.90;;;;;;4986574;28;20046;-60
2022/01/29 06:30:47;;;;;;;26.95;13.48;;;8.90;99.90;;;;;;4972875;28;20034;-60
2022/01/29 06:33:13;;;;;;;29.77;13.38;;;8.90;99.90;;;;;;4980275;28;20049;-60
2022/01/29 06:35:42;;;;;;;28.45;13.82;;;8.90;99.90;;;;;;4971255;28;20171;-58
2022/01/29 06:38:09;;;;;;;31.55;13.45;;;8.90;99.90;;;;;;4977663;28;20071;-59
2022/01/29 06:40:36;;;;;;;21.08;12.43;;;8.90;99.90;;;;;;4976320;28;20137;-58
2022/01/29 06:43:04;;;;;;;30.55;14.50;;;8.90;99.90;;;;;;4955839;28;20049;-59
2022/01/29 06:45:30;;;;;;;21.63;12.38;;;8.90;99.90;;;;;;4951465;28;20520;-55
2022/01/29 06:47:56;;;;;;;21.77;11.20;;;8.90;99.90;;;;;;4958107;28;20064;-60
2022/01/29 06:50:22;;;;;;;28.30;12.30;;;8.90;99.90;;;;;;4978055;28;20042;-58
2022/01/29 06:52:48;;;;;;;21.35;11.43;;;8.90;99.90;;;;;;4973864;28;20133;-58
2022/01/29 06:55:14;;;;;;;23.70;12.02;;;8.90;99.90;;;;;;4969081;28;20047;-57
2022/01/29 06:57:40;;;;;;;22.65;12.07;;;9.00;99.90;;;;;;4985444;28;20042;-57
2022/01/29 07:00:07;;;;;;;22.33;11.75;;;9.00;99.90;;;;;;4975382;28;20038;-60
2022/01/29 07:02:36;;;;;;;24.02;11.80;;;8.90;99.90;;;;;;4975188;28;20137;-58
2022/01/29 07:05:07;;;;;;;23.67;11.02;;;9.00;99.90;;;;;;4973333;28;20042;-58
2022/01/29 07:07:33;;;;;;;24.50;11.32;;;9.00;99.90;;;;;;4986018;28;20068;-58
2022/01/29 07:09:58;;;;;;;19.15;10.63;;;8.90;99.90;;;;;;4971272;28;20034;-58
2022/01/29 07:12:25;;;;;;;19.92;10.63;;;8.90;99.90;;;;;;4970992;28;20157;-60
2022/01/29 07:14:51;;;;;;;22.45;11.10;;;8.90;99.90;;;;;;4977585;28;20576;-57
2022/01/29 07:17:18;;;;;;;22.92;10.43;;;8.90;99.90;;;;;;4975190;28;20045;-58
2022/01/29 07:19:47;;;;;;;22.25;10.02;;;8.90;99.90;;;;;;4965181;28;20061;-57
2022/01/29 07:22:13;;;;;;;25.13;9.73;;;8.90;99.90;;;;;;4974156;28;20251;-59
2022/01/29 07:24:39;;;;;;;21.30;10.48;;;8.90;99.90;;;;;;4971921;28;20073;-60
2022/01/29 07:27:05;;;;;;;23.50;10.98;;;8.90;99.90;;;;;;4978155;28;20107;-58
2022/01/29 07:29:32;;;;;;;26.13;10.30;;;8.90;99.90;;;;;;4973020;28;20073;-60
2022/01/29 07:31:58;;;;;;;23.55;11.48;;;8.90;99.90;;;;;;4976462;28;20057;-62
2022/01/29 07:34:24;;;;;;;20.77;9.10;;;8.80;99.90;;;;;;4968139;28;20043;-60
2022/01/29 07:36:51;;;;;;;20.98;9.93;;;8.80;99.90;;;;;;4958393;28;20288;-58
2022/01/29 07:39:18;;;;;;;24.63;9.70;;;8.80;99.90;;;;;;4983237;28;20422;-61
2022/01/29 07:41:43;;;;;;;22.17;9.32;;;8.90;99.90;;;;;;4957310;28;20086;-59
2022/01/29 07:44:09;;;;;;;18.15;9.82;;;8.90;99.90;;;;;;4974044;28;20139;-60
2022/01/29 07:46:35;;;;;;;20.30;9.30;;;8.90;99.90;;;;;;4959504;28;20507;-60
2022/01/29 07:49:00;;;;;;;19.02;9.18;;;8.90;99.90;;;;;;4967699;28;20045;-61
2022/01/29 07:51:26;;;;;;;17.35;9.02;;;8.90;99.90;;;;;;4981936;28;20065;-60
2022/01/29 07:53:52;;;;;;;23.00;9.50;;;8.90;99.90;;;;;;4973588;28;20122;-58
2022/01/29 07:56:20;;;;;;;21.45;9.85;;;8.90;99.90;;;;;;4979975;28;20042;-59
2022/01/29 07:58:46;;;;;;;21.10;9.45;;;8.90;99.90;;;;;;4978774;28;20080;-60
2022/01/29 08:01:13;;;;;;;23.85;9.45;;;8.90;99.90;;;;;;4985297;28;20036;-60
2022/01/29 08:03:40;;;;;;;19.73;8.75;;;8.90;99.90;;;;;;4965686;28;20295;-58
2022/01/29 08:06:05;;;;;;;20.85;8.50;;;9.00;99.90;;;;;;4971227;28;20042;-58
2022/01/29 08:08:31;;;;;;;19.58;8.88;;;9.00;99.90;;;;;;4980071;28;20046;-57
2022/01/29 08:10:57;;;;;;;18.08;8.43;;;9.00;99.90;;;;;;4981179;28;20038;-58
2022/01/29 08:13:23;;;;;;;19.38;9.32;;;9.00;99.90;;;;;;4993404;23;20061;-64
2022/01/29 08:15:49;;;;;;;18.92;8.43;;;9.00;99.90;;;;;;4994760;28;20641;-64
2022/01/29 08:18:15;;;;;;;18.75;7.22;;;9.00;99.90;;;;;;4985039;28;20125;-64
2022/01/29 08:20:41;;;;;;;18.05;7.63;;;9.10;99.90;;;;;;4979796;28;20044;-64
2022/01/29 08:23:08;;;;;;;17.85;8.10;;;9.00;99.90;;;;;;4986395;28;20049;-64
2022/01/29 08:25:34;;;;;;;18.15;7.63;;;9.10;99.90;;;;;;4982759;28;20056;-64
2022/01/29 08:28:00;;;;;;;15.50;6.43;;;9.10;99.90;;;;;;4966138;28;20202;-64
2022/01/29 08:30:26;;;;;;;16.17;7.55;;;9.10;99.90;;;;;;4972614;28;20049;-64
2022/01/29 08:32:52;;;;;;;16.23;6.85;;;9.10;99.90;;;;;;4981062;28;20450;-63
2022/01/29 08:35:17;;;;;;;16.85;7.32;;;9.20;99.90;;;;;;4967473;28;20687;-63
2022/01/29 08:37:44;;;;;;;14.48;5.97;;;9.20;99.90;;;;;;4974881;28;20038;-63
2022/01/29 08:40:11;;;;;;;14.23;6.95;;;9.20;99.90;;;;;;4977014;28;20099;-64
2022/01/29 08:42:37;;;;;;;15.82;6.70;;;9.20;99.90;;;;;;4971655;28;20496;-64
2022/01/29 08:45:04;;;;;;;15.48;7.10;;;9.20;99.90;;;;;;4984073;28;20053;-64
2022/01/29 08:47:30;;;;;;;14.13;6.35;;;9.20;99.90;;;;;;4984934;28;20397;-64
2022/01/29 08:49:55;;;;;;;14.60;6.32;;;9.20;99.90;;;;;;4965688;28;20260;-64
2022/01/29 08:52:21;;;;;;;15.77;5.38;;;9.30;99.90;;;;;;4982664;28;20037;-64
2022/01/29 08:54:47;;;;;;;18.05;6.97;;;9.30;99.90;;;;;;4980496;28;20065;-65
2022/01/29 08:57:13;;;;;;;13.52;5.47;;;9.30;99.90;;;;;;4967294;28;20046;-64
2022/01/29 08:59:39;;;;;;;16.50;5.78;;;9.30;99.90;;;;;;4968759;28;20050;-64
2022/01/29 09:02:05;;;;;;;17.23;6.53;;;9.30;99.90;;;;;;4971112;28;20042;-64
2022/01/29 09:04:31;;;;;;;18.45;5.88;;;9.30;99.90;;;;;;4980287;28;20050;-64
2022/01/29 09:06:56;;;;;;;16.23;5.72;;;9.30;99.90;;;;;;4984137;28;20053;-64
2022/01/29 09:09:24;;;;;;;16.77;5.32;;;9.40;99.90;;;;;;4980091;28;20049;-64
2022/01/29 09:11:51;;;;;;;14.48;4.97;;;9.40;99.90;;;;;;4970950;28;20107;-64
2022/01/29 09:14:17;;;;;;;14.13;5.15;;;9.40;99.90;;;;;;4968059;28;20102;-64
2022/01/29 09:16:43;;;;;;;16.38;5.65;;;9.40;99.90;;;;;;4984927;28;20053;-64
2022/01/29 09:19:09;;;;;;;12.50;5.07;;;9.50;99.90;;;;;;5003420;28;20038;-64
2022/01/29 09:21:34;;;;;;;12.10;4.72;;;9.50;99.90;;;;;;4980688;28;20040;-64
2022/01/29 09:24:00;;;;;;;13.48;5.25;;;9.50;99.90;;;;;;4963197;28;20532;-64
2022/01/29 09:26:26;;;;;;;10.85;4.63;;;9.60;99.90;;;;;;4987568;28;20058;-64
2022/01/29 09:28:52;;;;;;;11.98;5.85;;;9.60;99.90;;;;;;4982974;28;20555;-65
2022/01/29 09:31:18;;;;;;;13.40;4.80;;;9.60;99.90;;;;;;5003279;28;20084;-66
2022/01/29 09:33:43;;;;;;;17.25;4.93;;;9.60;99.90;;;;;;4966150;28;20108;-63
2022/01/29 09:36:09;;;;;;;12.18;4.50;;;9.60;99.90;;;;;;4994980;28;20492;-65
2022/01/29 09:38:36;;;;;;;15.43;5.18;;;9.60;99.90;;;;;;4987937;28;20571;-65
2022/01/29 09:41:03;;;;;;;13.00;4.32;;;9.60;99.90;;;;;;4980577;28;20037;-65
2022/01/29 09:43:31;;;;;;;12.45;4.53;;;9.60;99.90;;;;;;4975040;28;20188;-66
2022/01/29 09:45:57;;;;;;;11.52;3.47;;;9.70;99.90;;;;;;4974127;28;20077;-65
2022/01/29 09:48:25;;;;;;;18.88;3.90;;;9.70;99.90;;;;;;4989767;28;20048;-66
2022/01/29 09:50:52;;;;;;;21.85;3.75;;;9.70;99.90;;;;;;4985797;28;20120;-65
2022/01/29 09:53:18;;;;;;;11.60;3.50;;;9.70;99.90;;;;;;4955084;28;20265;-65
2022/01/29 09:55:44;;;;;;;13.90;4.13;;;9.70;99.90;;;;;;4976074;28;20064;-66
2022/01/29 09:58:10;;;;;;;13.25;3.58;;;9.70;99.90;;;;;;4973770;28;20041;-63
2022/01/29 10:00:37;;;;;;;13.15;3.15;;;9.70;99.90;;;;;;4973900;28;20072;-65
2022/01/29 10:03:12;;;;;;;13.02;3.08;;;9.80;99.90;;;;;;4983887;28;20049;-63
2022/01/29 10:05:43;;;;;;;12.27;3.35;;;9.80;99.90;;;;;;4989989;28;20468;-66
2022/01/29 10:08:09;;;;;;;11.82;3.47;;;9.80;99.90;;;;;;4979232;28;20081;-64
2022/01/29 10:10:39;;;;;;;11.00;2.35;;;9.80;99.90;;;;;;4995245;28;20041;-63
2022/01/29 10:13:23;;;;;;;14.15;3.15;;;9.80;99.90;;;;;;4967385;28;20066;-66
2022/01/29 10:15:51;;;;;;;12.90;2.80;;;9.90;99.90;;;;;;4980297;28;20038;-65
2022/01/29 10:18:23;;;;;;;11.50;2.45;;;9.90;99.90;;;;;;4980633;28;20042;-65
2022/01/29 10:20:50;;;;;;;10.75;2.88;;;9.90;99.90;;;;;;4998473;28;20141;-64
2022/01/29 10:23:17;;;;;;;14.82;2.80;;;10.00;99.90;;;;;;4978340;28;20129;-66
2022/01/29 10:25:49;;;;;;;10.18;2.80;;;10.00;99.90;;;;;;4981366;28;20042;-63
2022/01/29 10:28:20;;;;;;;13.38;3.10;;;10.00;99.90;;;;;;4948299;28;20041;-66
2022/01/29 10:30:49;;;;;;;16.17;2.92;;;10.00;99.90;;;;;;4979484;28;20054;-66
2022/01/29 10:33:32;;;;;;;15.73;3.13;;;10.10;99.90;;;;;;5003444;28;20057;-65
2022/01/29 10:36:04;;;;;;;11.93;3.42;;;10.10;99.90;;;;;;4984732;28;20040;-66
2022/01/29 10:38:47;;;;;;;15.60;3.40;;;10.10;99.90;;;;;;4977250;28;20117;-65
2022/01/29 10:41:20;;;;;;;15.38;3.17;;;10.10;99.90;;;;;;4982041;28;20073;-64
2022/01/29 10:46:39;;;;;;;11.57;3.13;;;10.10;99.90;;;;;;4981386;28;20046;-66
2022/01/29 10:49:06;;;;;;;14.27;2.80;;;10.10;99.90;;;;;;4956829;28;20056;-65
2022/01/29 10:51:34;;;;;;;10.60;2.85;;;10.10;99.90;;;;;;4972077;28;20129;-64
2022/01/29 10:54:19;;;;;;;11.07;2.97;;;10.10;99.90;;;;;;4973174;28;20237;-66
2022/01/29 10:56:51;;;;;;;13.70;2.90;;;10.10;99.90;;;;;;4978379;28;20042;-66
2022/01/29 10:59:17;;;;;;;15.27;4.20;;;10.10;99.90;;;;;;4965931;28;20030;-66
2022/01/29 11:01:59;;;;;;;11.55;2.70;;;10.10;99.90;;;;;;4972853;28;20053;-65
2022/01/29 11:04:28;;;;;;;9.80;3.42;;;10.20;99.90;;;;;;4972648;28;20519;-66
2022/01/29 11:06:57;;;;;;;15.27;3.70;;;10.20;99.90;;;;;;4980697;28;20519;-65
2022/01/29 11:09:24;;;;;;;9.45;3.17;;;10.20;99.90;;;;;;4992250;28;21454;-65
2022/01/29 11:11:51;;;;;;;11.57;3.90;;;10.20;99.90;;;;;;4979237;28;20072;-66
2022/01/29 11:14:18;;;;;;;11.27;3.08;;;10.20;99.90;;;;;;4987116;28;20043;-65
2022/01/29 11:16:45;;;;;;;8.77;2.97;;;10.20;99.90;;;;;;4982515;28;20057;-65
2022/01/29 11:19:11;;;;;;;12.32;2.70;;;10.20;99.90;;;;;;4977287;28;20053;-66
2022/01/29 11:21:38;;;;;;;10.00;2.47;;;10.30;99.90;;;;;;4972252;28;20038;-64
2022/01/29 11:24:09;;;;;;;7.13;2.15;;;10.40;99.90;;;;;;4985303;28;20175;-65
2022/01/29 11:26:36;;;;;;;8.70;2.10;;;10.40;99.90;;;;;;4988387;28;20931;-65
2022/01/29 11:29:20;;;;;;;9.23;2.03;;;10.40;99.90;;;;;;4999426;28;20112;-65
2022/01/29 11:31:46;;;;;;;10.07;2.38;;;10.50;99.90;;;;;;4981490;28;20322;-64
2022/01/29 11:34:12;;;;;;;7.45;2.05;;;10.50;99.90;;;;;;4964586;28;20065;-65
2022/01/29 11:36:49;;;;;;;10.63;2.20;;;10.50;99.90;;;;;;4987237;28;20093;-64
2022/01/29 11:39:23;;;;;;;7.82;1.92;;;10.50;99.90;;;;;;4997903;28;20034;-65
2022/01/29 11:42:11;;;;;;;8.50;2.22;;;10.50;99.90;;;;;;4973133;28;20049;-65
2022/01/29 11:44:37;;;;;;;7.65;2.25;;;10.50;99.90;;;;;;4981374;28;20046;-64
2022/01/29 11:47:22;;;;;;;8.45;1.90;;;10.50;99.90;;;;;;4992040;28;20096;-65
2022/01/29 11:49:48;;;;;;;9.48;1.90;;;10.50;99.90;;;;;;4974481;28;20485;-64
2022/01/29 11:52:24;;;;;;;8.93;2.00;;;10.60;99.90;;;;;;4995881;28;20042;-65
2022/01/29 11:55:01;;;;;;;11.20;2.70;;;10.50;99.90;;;;;;4983948;28;20042;-65
2022/01/29 11:57:27;;;;;;;13.18;2.67;;;10.60;99.90;;;;;;4989156;28;20049;-63
2022/01/29 11:59:53;;;;;;;14.95;2.55;;;10.60;99.90;;;;;;4980284;28;20037;-65
2022/01/29 12:02:18;;;;;;;10.27;2.20;;;10.60;99.90;;;;;;4983513;28;20056;-65
2022/01/29 12:04:54;;;;;;;14.48;2.67;;;10.70;99.90;;;;;;4978134;28;20050;-65
2022/01/29 12:07:28;;;;;;;10.07;2.97;;;10.70;99.90;;;;;;4976720;28;20042;-65
2022/01/29 12:10:05;;;;;;;13.23;2.60;;;10.70;99.90;;;;;;4972987;28;20379;-64
2022/01/29 12:12:36;;;;;;;10.45;3.10;;;10.90;99.90;;;;;;4978030;28;20500;-64
2022/01/29 12:15:11;;;;;;;11.38;3.10;;;10.90;99.90;;;;;;4999074;28;20100;-65
2022/01/29 12:17:43;;;;;;;11.65;3.35;;;10.90;99.90;;;;;;4985019;28;20041;-65
2022/01/29 12:20:12;;;;;;;13.35;2.35;;;10.80;99.90;;;;;;4981508;28;20087;-64
2022/01/29 12:22:39;;;;;;;12.25;3.10;;;10.80;99.90;;;;;;4982889;28;20048;-65
2022/01/29 12:25:10;;;;;;;14.02;3.38;;;10.80;99.90;;;;;;4986729;28;20038;-64
2022/01/29 12:27:46;;;;;;;15.50;5.03;;;10.80;99.90;;;;;;4966765;28;20056;-65
2022/01/29 12:30:19;;;;;;;12.38;2.70;;;10.80;99.90;;;;;;4955440;28;20034;-65
2022/01/29 12:33:16;;;;;;;9.98;3.10;;;10.80;99.90;;;;;;4994651;28;20052;-65
2022/01/29 12:35:56;;;;;;;13.98;2.97;;;10.90;99.90;;;;;;4989135;28;20149;-66
2022/01/29 12:38:27;;;;;;;11.80;2.92;;;10.90;99.90;;;;;;4996806;28;20030;-66
2022/01/29 12:40:55;;;;;;;10.23;3.25;;;10.90;99.90;;;;;;4984690;28;20038;-65
2022/01/29 12:43:37;;;;;;;16.45;3.05;;;10.90;99.90;;;;;;4978607;28;20529;-66
2022/01/29 12:46:14;;;;;;;17.58;4.38;;;10.80;99.90;;;;;;4967718;28;20054;-65
2022/01/29 12:48:59;;;;;;;20.70;4.32;;;10.80;99.90;;;;;;4986790;28;20066;-66
2022/01/29 12:51:24;;;;;;;11.27;2.75;;;10.70;99.90;;;;;;4995424;28;20627;-65
2022/01/29 12:54:03;;;;;;;12.98;3.00;;;10.70;99.90;;;;;;4965756;28;20041;-65
2022/01/29 12:56:35;;;;;;;15.80;3.92;;;10.70;99.90;;;;;;4981950;28;20325;-65
2022/01/29 12:59:03;;;;;;;13.88;3.15;;;10.70;99.90;;;;;;4982368;28;20087;-64
2022/01/29 13:01:29;;;;;;;13.98;2.97;;;10.70;99.90;;;;;;4986500;28;20050;-64